Morton S Bouchard Jr — WSE9678 — position and weather

sailwx.info

Track history (hours):
 
Tides and Currents Weather Stations Pressure Air Temp Water Temp Dewpoint Dewpoint Depression Visibility Wind Speed Wind Dir Waves Ship Positions

Morton S Bouchard Jr

Owner: BOUCHARD TRANSPORTATION CO INC, MELVILLE, NY. More information available from US FCC via Universal Licensing System and Coast Guard Vessel Documentation Center.

Last reported at 2018-Jun-23 08:42 UTC. Time now 2018-Jun-23 09:51 UTC.
Position N 39°01' W 075°09'.

Length 33 m; draft 5 m.

Type: Towing. MMSI: 367006550.

Date/timePositionNaut miles runAvg speedWind from/ knotsBaromVisibWave heightAir tempDewpointWater temp
2018-Jun-23 08:42N 39°01' W 075°09'0 1.0
2018-Jun-23 08:29N 39°01' W 075°09'3 6.3
2018-Jun-23 07:57N 39°04' W 075°11'3 6.5
2018-Jun-23 07:30N 39°07' W 075°13'3 6.6
2018-Jun-23 07:00N 39°10' W 075°15'4 7.4
2018-Jun-23 06:30N 39°13' W 075°18'4 8.4
2018-Jun-23 06:00N 39°16' W 075°21'5 9.3
2018-Jun-23 05:30N 39°20' W 075°25'5 9.7
2018-Jun-23 05:00N 39°23' W 075°29'5 9.8
2018-Jun-23 04:30N 39°27' W 075°33'5 9.4
2018-Jun-23 04:00N 39°32' W 075°33'4 7.8
2018-Jun-23 03:30N 39°35' W 075°35'0 0.3
2018-Jun-23 02:58N 39°35' W 075°36'0 0.0
2018-Jun-23 02:28N 39°35' W 075°36'0 0.0
2018-Jun-23 01:55N 39°35' W 075°36'0 0.0
2018-Jun-23 01:28N 39°35' W 075°36'0 0.0
2018-Jun-23 00:58N 39°35' W 075°36'0 0.0
2018-Jun-23 00:28N 39°35' W 075°36'0 0.0
2018-Jun-22 23:58N 39°35' W 075°36'0 0.0
2018-Jun-22 23:28N 39°35' W 075°36'0 0.0
2018-Jun-22 22:58N 39°35' W 075°36'0 0.0
2018-Jun-22 22:28N 39°35' W 075°36'0 0.0
2018-Jun-22 21:58N 39°35' W 075°36'0 0.0
2018-Jun-22 21:28N 39°35' W 075°36'0 0.0
2018-Jun-22 20:58N 39°35' W 075°36'0 0.0
2018-Jun-22 20:28N 39°35' W 075°36'0 0.0
2018-Jun-22 19:58N 39°35' W 075°36'0 0.0
2018-Jun-22 19:28N 39°35' W 075°36'0 0.0
2018-Jun-22 18:58N 39°35' W 075°36'0 0.0
2018-Jun-22 18:28N 39°35' W 075°36'0 0.0
2018-Jun-22 17:58N 39°35' W 075°36'0 0.0
2018-Jun-22 17:28N 39°35' W 075°36'0 0.0
2018-Jun-22 16:58N 39°35' W 075°36'0 0.0
2018-Jun-22 16:28N 39°35' W 075°36'0 0.0
2018-Jun-22 15:58N 39°35' W 075°36'0 0.0
2018-Jun-22 15:28N 39°35' W 075°36'0 0.0
2018-Jun-22 15:00N 39°35' W 075°36'0 0.0
2018-Jun-22 14:30N 39°35' W 075°36'0 0.0
2018-Jun-22 14:00N 39°35' W 075°36'0 0.0
2018-Jun-22 13:30N 39°35' W 075°36'0 0.0
2018-Jun-22 13:00N 39°35' W 075°36'0 0.0
2018-Jun-22 12:30N 39°35' W 075°36'1 2.1
2018-Jun-22 12:00N 39°35' W 075°34'1 2.8
2018-Jun-22 11:30N 39°34' W 075°33'4 7.8
2018-Jun-22 11:01N 39°37' W 075°35'4 8.3
2018-Jun-22 10:30N 39°41' W 075°31'2 3.4
2018-Jun-22 09:58N 39°42' W 075°30'0 0.0
2018-Jun-22 09:28N 39°42' W 075°30'0 0.0
2018-Jun-22 08:58N 39°42' W 075°30'0 0.1
2018-Jun-22 08:28N 39°42' W 075°30'0 0.2
2018-Jun-22 07:55N 39°42' W 075°31'0 0.1
2018-Jun-22 07:28N 39°42' W 075°31'0 0.0
2018-Jun-22 06:58N 39°42' W 075°31'0 0.0
2018-Jun-22 06:25N 39°42' W 075°31'0 0.0
2018-Jun-22 05:58N 39°42' W 075°31'0 0.0
2018-Jun-22 05:28N 39°42' W 075°31'0 0.0
2018-Jun-22 04:58N 39°42' W 075°31'0 0.0
2018-Jun-22 04:28N 39°42' W 075°31'0 0.0
2018-Jun-22 03:58N 39°42' W 075°31'0 0.0
2018-Jun-22 03:28N 39°42' W 075°31'0 0.1
2018-Jun-22 02:58N 39°42' W 075°31'0 0.1
2018-Jun-22 02:28N 39°42' W 075°31'0 0.2
2018-Jun-22 01:55N 39°42' W 075°30'0 0.1
2018-Jun-22 01:28N 39°42' W 075°30'0 0.0
2018-Jun-22 00:58N 39°42' W 075°30'0 0.0
2018-Jun-22 00:28N 39°42' W 075°30'0 0.0
2018-Jun-22 00:00N 39°42' W 075°30'0 0.0
2018-Jun-21 23:28N 39°42' W 075°30'0 0.0
2018-Jun-21 23:01N 39°42' W 075°30'0 0.0
2018-Jun-21 22:31N 39°42' W 075°30'0 0.0
2018-Jun-21 22:00N 39°42' W 075°30'0 0.0
2018-Jun-21 21:30N 39°42' W 075°30'0 0.0
2018-Jun-21 21:00N 39°42' W 075°30'0 0.0
2018-Jun-21 20:30N 39°42' W 075°30'0 0.1
2018-Jun-21 20:00N 39°42' W 075°30'0 0.2
2018-Jun-21 19:30N 39°42' W 075°31'0 0.1
2018-Jun-21 19:00N 39°42' W 075°31'0 0.6
2018-Jun-21 18:30N 39°43' W 075°31'1 2.1
2018-Jun-21 17:58N 39°43' W 075°32'0 0.0
2018-Jun-21 17:28N 39°43' W 075°32'0 0.0
2018-Jun-21 16:58N 39°43' W 075°32'0 0.0
2018-Jun-21 16:26N 39°43' W 075°32'1 2.8
2018-Jun-21 15:58N 39°42' W 075°30'4 7.9
2018-Jun-21 15:30N 39°46' W 075°29'611.1
2018-Jun-21 15:00N 39°49' W 075°23'510.7
2018-Jun-21 14:30N 39°51' W 075°17'3 5.8
2018-Jun-21 13:58N 39°52' W 075°13'0 0.0
2018-Jun-21 13:28N 39°52' W 075°13'0 0.1
2018-Jun-21 12:58N 39°52' W 075°13'0 0.0
2018-Jun-21 12:28N 39°52' W 075°13'0 0.0
2018-Jun-21 11:58N 39°52' W 075°13'0 0.0
2018-Jun-21 11:28N 39°52' W 075°13'0 0.0
2018-Jun-21 10:58N 39°52' W 075°13'0 0.0
2018-Jun-21 10:28N 39°52' W 075°13'0 0.0
2018-Jun-21 09:58N 39°52' W 075°13'0 0.0
2018-Jun-21 09:28N 39°52' W 075°13'0 0.0
2018-Jun-21 08:58N 39°52' W 075°13'0 0.1
2018-Jun-21 08:28N 39°52' W 075°13'0 0.0
2018-Jun-21 07:58N 39°52' W 075°13'0 0.1
2018-Jun-21 07:28N 39°52' W 075°13'0 0.0
2018-Jun-21 06:58N 39°52' W 075°13'0 0.0
2018-Jun-21 06:28N 39°52' W 075°13'0 0.0
2018-Jun-21 05:58N 39°52' W 075°13'0 0.0
2018-Jun-21 05:28N 39°52' W 075°13'0 0.0
2018-Jun-21 04:58N 39°52' W 075°13'0 0.0
2018-Jun-21 04:28N 39°52' W 075°13'0 0.0
2018-Jun-21 03:58N 39°52' W 075°13'0 0.0
2018-Jun-21 03:28N 39°52' W 075°13'0 0.0
2018-Jun-21 02:58N 39°52' W 075°13'0 0.1
2018-Jun-21 02:28N 39°52' W 075°13'0 0.1
2018-Jun-21 01:58N 39°52' W 075°13'0 0.0
2018-Jun-21 01:28N 39°52' W 075°13'0 0.0
2018-Jun-21 00:58N 39°52' W 075°13'0 0.0
2018-Jun-21 00:28N 39°52' W 075°13'0 0.0
2018-Jun-20 23:58N 39°52' W 075°13'0 0.0
2018-Jun-20 23:28N 39°52' W 075°13'0 0.0
2018-Jun-20 22:58N 39°52' W 075°13'0 0.0
2018-Jun-20 22:28N 39°52' W 075°13'0 0.0
2018-Jun-20 21:58N 39°52' W 075°13'0 0.0
2018-Jun-20 21:28N 39°52' W 075°13'0 0.0
2018-Jun-20 20:58N 39°52' W 075°13'0 0.0
2018-Jun-20 20:28N 39°52' W 075°13'0 0.0
2018-Jun-20 19:58N 39°52' W 075°13'0 0.0
2018-Jun-20 19:28N 39°52' W 075°13'0 0.1
2018-Jun-20 18:58N 39°52' W 075°13'0 0.0
2018-Jun-20 18:28N 39°52' W 075°13'0 0.0
2018-Jun-20 17:58N 39°52' W 075°13'0 0.0
2018-Jun-20 17:28N 39°52' W 075°13'0 0.0
2018-Jun-20 16:58N 39°52' W 075°13'0 0.0
2018-Jun-20 16:28N 39°52' W 075°13'2 4.0
2018-Jun-20 16:00N 39°54' W 075°12'0 0.1
2018-Jun-20 15:29N 39°54' W 075°12'0 0.0
2018-Jun-20 14:59N 39°54' W 075°12'0 0.0
2018-Jun-20 14:29N 39°54' W 075°12'2 3.6
2018-Jun-20 13:59N 39°52' W 075°13'0 0.0
2018-Jun-20 13:29N 39°52' W 075°13'0 0.0
2018-Jun-20 12:59N 39°52' W 075°13'0 0.1
2018-Jun-20 12:26N 39°52' W 075°13'0 0.1
2018-Jun-20 11:59N 39°52' W 075°13'0 0.0
2018-Jun-20 11:29N 39°52' W 075°13'0 0.0
2018-Jun-20 10:59N 39°52' W 075°13'0 0.0
2018-Jun-20 10:29N 39°52' W 075°13'0 0.0
2018-Jun-20 09:59N 39°52' W 075°13'0 0.0
2018-Jun-20 09:29N 39°52' W 075°13'0 0.0
2018-Jun-20 08:56N 39°52' W 075°13'0 0.0
2018-Jun-20 08:28N 39°52' W 075°13'0 0.0
2018-Jun-20 07:58N 39°52' W 075°13'0 0.1
2018-Jun-20 07:28N 39°52' W 075°13'0 0.1
2018-Jun-20 06:59N 39°52' W 075°13'0 0.1
2018-Jun-20 06:28N 39°52' W 075°13'0 0.0
2018-Jun-20 05:58N 39°52' W 075°13'0 0.0
2018-Jun-20 05:28N 39°52' W 075°13'0 0.0
2018-Jun-20 04:58N 39°52' W 075°13'0 0.0
2018-Jun-20 04:28N 39°52' W 075°13'0 0.0
2018-Jun-20 03:58N 39°52' W 075°13'0 0.0
2018-Jun-20 03:28N 39°52' W 075°13'0 0.0
2018-Jun-20 02:58N 39°52' W 075°13'0 0.0
2018-Jun-20 02:28N 39°52' W 075°13'0 0.0
2018-Jun-20 01:58N 39°52' W 075°13'0 0.1
2018-Jun-20 01:28N 39°52' W 075°13'0 0.0
2018-Jun-20 00:58N 39°52' W 075°13'0 0.1
2018-Jun-20 00:28N 39°52' W 075°13'0 0.1
2018-Jun-19 23:58N 39°52' W 075°13'0 0.1
2018-Jun-19 23:28N 39°52' W 075°13'0 0.0
2018-Jun-19 22:58N 39°52' W 075°13'0 0.0
2018-Jun-19 22:28N 39°52' W 075°13'0 0.0
2018-Jun-19 21:58N 39°52' W 075°13'0 0.0
2018-Jun-19 21:28N 39°52' W 075°13'0 0.0
2018-Jun-19 20:58N 39°52' W 075°13'0 0.0
2018-Jun-19 20:28N 39°52' W 075°13'0 0.1
2018-Jun-19 19:58N 39°52' W 075°13'0 0.1
2018-Jun-19 19:28N 39°52' W 075°13'0 0.1
2018-Jun-19 18:58N 39°52' W 075°13'0 0.1
2018-Jun-19 18:28N 39°52' W 075°13'0 0.0
2018-Jun-19 17:58N 39°52' W 075°13'0 0.0
2018-Jun-19 17:28N 39°52' W 075°13'0 0.0
2018-Jun-19 16:58N 39°52' W 075°13'0 0.0
2018-Jun-19 16:28N 39°52' W 075°13'0 0.0
2018-Jun-19 15:58N 39°52' W 075°13'0 0.0
2018-Jun-19 15:28N 39°52' W 075°13'0 0.0
2018-Jun-19 14:58N 39°52' W 075°13'1 3.1
2018-Jun-19 14:30N 39°51' W 075°14'1 2.7
2018-Jun-19 13:58N 39°52' W 075°13'0 0.1
2018-Jun-19 13:28N 39°52' W 075°13'0 0.1
2018-Jun-19 12:59N 39°52' W 075°13'0 0.1
2018-Jun-19 12:29N 39°52' W 075°13'0 0.0
2018-Jun-19 11:59N 39°52' W 075°13'0 0.2
2018-Jun-19 11:29N 39°52' W 075°13'0 0.0
2018-Jun-19 10:59N 39°52' W 075°13'0 0.0
2018-Jun-19 10:29N 39°52' W 075°13'0 0.0
2018-Jun-19 09:59N 39°52' W 075°13'0 0.0
2018-Jun-19 09:29N 39°52' W 075°13'0 0.0
2018-Jun-19 08:59N 39°52' W 075°13'0 0.0
2018-Jun-19 08:29N 39°52' W 075°13'0 0.0
2018-Jun-19 07:59N 39°52' W 075°13'0 0.0
2018-Jun-19 07:29N 39°52' W 075°13'0 0.0
2018-Jun-19 06:59N 39°52' W 075°13'0 0.0
2018-Jun-19 06:26N 39°52' W 075°13'0 0.0
2018-Jun-19 05:59N 39°52' W 075°13'0 0.2
2018-Jun-19 05:29N 39°52' W 075°13'0 0.2
2018-Jun-19 04:59N 39°52' W 075°13'0 0.1
2018-Jun-19 04:29N 39°52' W 075°13'0 0.0
2018-Jun-19 03:59N 39°52' W 075°13'0 0.0
2018-Jun-19 03:26N 39°52' W 075°13'0 0.0
2018-Jun-19 02:59N 39°52' W 075°13'0 0.0
2018-Jun-19 02:26N 39°52' W 075°13'0 0.0
2018-Jun-19 01:59N 39°52' W 075°13'0 0.0
2018-Jun-19 01:29N 39°52' W 075°13'0 0.1
2018-Jun-19 00:59N 39°52' W 075°13'0 0.1
2018-Jun-19 00:29N 39°52' W 075°13'0 0.1
2018-Jun-18 23:59N 39°52' W 075°13'0 0.0
2018-Jun-18 23:29N 39°52' W 075°13'0 0.0
2018-Jun-18 22:59N 39°52' W 075°13'0 0.0
2018-Jun-18 22:29N 39°52' W 075°13'0 0.0
2018-Jun-18 21:59N 39°52' W 075°13'0 0.0
2018-Jun-18 21:29N 39°52' W 075°13'0 0.0
2018-Jun-18 20:59N 39°52' W 075°13'0 0.0
2018-Jun-18 20:29N 39°52' W 075°13'0 0.0
2018-Jun-18 19:59N 39°52' W 075°13'0 0.1
2018-Jun-18 19:29N 39°52' W 075°13'0 0.0
2018-Jun-18 18:59N 39°52' W 075°13'0 0.0
2018-Jun-18 18:29N 39°52' W 075°13'0 0.0
2018-Jun-18 17:58N 39°52' W 075°13'0 0.1
2018-Jun-18 17:28N 39°52' W 075°13'0 0.2
2018-Jun-18 16:58N 39°52' W 075°13'1 1.9
2018-Jun-18 16:30N 39°53' W 075°12'0 0.3
2018-Jun-18 16:00N 39°53' W 075°12'1 1.6
2018-Jun-18 15:28N 39°52' W 075°13'0 0.0
2018-Jun-18 14:58N 39°52' W 075°13'0 0.0
2018-Jun-18 14:28N 39°52' W 075°13'0 0.0
2018-Jun-18 13:58N 39°52' W 075°13'0 0.0
2018-Jun-18 13:28N 39°52' W 075°13'0 0.0
2018-Jun-18 12:58N 39°52' W 075°13'0 0.0
2018-Jun-18 12:28N 39°52' W 075°13'0 0.1
2018-Jun-18 11:58N 39°52' W 075°13'0 0.1
2018-Jun-18 11:25N 39°52' W 075°13'0 0.2
2018-Jun-18 10:58N 39°52' W 075°13'0 0.1
2018-Jun-18 10:28N 39°52' W 075°13'0 0.0
2018-Jun-18 09:58N 39°52' W 075°13'0 0.0
2018-Jun-18 09:25N 39°52' W 075°13'0 0.0
2018-Jun-18 08:58N 39°52' W 075°13'0 0.0
2018-Jun-18 08:28N 39°52' W 075°13'0 0.0
2018-Jun-18 07:58N 39°52' W 075°13'0 0.0
2018-Jun-18 07:28N 39°52' W 075°13'0 0.0
2018-Jun-18 06:58N 39°52' W 075°13'0 0.0
2018-Jun-18 06:28N 39°52' W 075°13'0 0.0
2018-Jun-18 05:58N 39°52' W 075°13'0 0.0
2018-Jun-18 05:28N 39°52' W 075°13'0 0.3
2018-Jun-18 04:58N 39°52' W 075°13'0 0.1
2018-Jun-18 04:28N 39°52' W 075°13'0 0.0
2018-Jun-18 04:00N 39°52' W 075°13'0 0.0
2018-Jun-18 03:29N 39°52' W 075°13'0 0.0
2018-Jun-18 02:59N 39°52' W 075°13'0 0.0
2018-Jun-18 02:29N 39°52' W 075°13'0 0.0
2018-Jun-18 01:59N 39°52' W 075°13'0 0.0
2018-Jun-18 01:30N 39°52' W 075°13'0 0.0
2018-Jun-18 01:00N 39°52' W 075°13'0 0.0
2018-Jun-18 00:30N 39°52' W 075°13'0 0.1
2018-Jun-17 23:59N 39°52' W 075°13'0 0.2
2018-Jun-17 23:30N 39°52' W 075°13'0 0.2
2018-Jun-17 22:59N 39°52' W 075°13'0 0.1
2018-Jun-17 22:29N 39°52' W 075°13'0 0.0
2018-Jun-17 21:59N 39°52' W 075°13'0 0.0
2018-Jun-17 21:29N 39°52' W 075°13'0 0.0
2018-Jun-17 20:59N 39°52' W 075°13'0 0.0
2018-Jun-17 20:29N 39°52' W 075°13'0 0.0
2018-Jun-17 19:59N 39°52' W 075°13'0 0.0
2018-Jun-17 19:29N 39°52' W 075°13'0 0.0
2018-Jun-17 18:59N 39°52' W 075°13'0 0.0
2018-Jun-17 18:29N 39°52' W 075°13'0 0.0
2018-Jun-17 17:59N 39°52' W 075°13'0 0.0
2018-Jun-17 17:29N 39°52' W 075°13'0 0.1
2018-Jun-17 16:59N 39°52' W 075°13'0 0.2
2018-Jun-17 16:29N 39°52' W 075°13'0 0.0
2018-Jun-17 15:59N 39°52' W 075°13'0 0.0
2018-Jun-17 15:29N 39°52' W 075°13'0 0.0
2018-Jun-17 14:59N 39°52' W 075°13'0 0.0
2018-Jun-17 14:29N 39°52' W 075°13'0 0.0
2018-Jun-17 13:59N 39°52' W 075°13'0 0.0
2018-Jun-17 13:29N 39°52' W 075°13'0 0.0
2018-Jun-17 12:59N 39°52' W 075°13'0 0.0
2018-Jun-17 12:29N 39°52' W 075°13'0 0.0
2018-Jun-17 11:59N 39°52' W 075°13'0 0.0
2018-Jun-17 11:29N 39°52' W 075°13'0 0.0
2018-Jun-17 10:59N 39°52' W 075°13'0 0.0
2018-Jun-17 10:29N 39°52' W 075°13'0 0.2
2018-Jun-17 09:59N 39°52' W 075°13'0 0.2
2018-Jun-17 09:29N 39°52' W 075°13'0 0.0
2018-Jun-17 08:59N 39°52' W 075°13'0 0.0
2018-Jun-17 08:29N 39°52' W 075°13'0 0.0
2018-Jun-17 07:59N 39°52' W 075°13'0 0.0
2018-Jun-17 07:29N 39°52' W 075°13'0 0.0
2018-Jun-17 06:56N 39°52' W 075°13'0 0.0
2018-Jun-17 06:29N 39°52' W 075°13'0 0.0
2018-Jun-17 05:59N 39°52' W 075°13'0 0.0
2018-Jun-17 05:29N 39°52' W 075°13'0 0.0
2018-Jun-17 04:59N 39°52' W 075°13'0 0.0
2018-Jun-17 04:29N 39°52' W 075°13'0 0.2
2018-Jun-17 03:59N 39°52' W 075°13'0 0.1
2018-Jun-17 03:29N 39°52' W 075°13'0 0.0
2018-Jun-17 02:59N 39°52' W 075°13'0 0.0
2018-Jun-17 02:29N 39°52' W 075°13'0 0.1
2018-Jun-17 01:59N 39°52' W 075°13'0 0.0
2018-Jun-17 01:29N 39°52' W 075°13'0 0.0
2018-Jun-17 00:59N 39°52' W 075°13'0 0.0
2018-Jun-17 00:29N 39°52' W 075°13'0 0.0
2018-Jun-16 23:59N 39°52' W 075°13'0 0.0
2018-Jun-16 23:29N 39°52' W 075°13'0 0.0
2018-Jun-16 22:59N 39°52' W 075°13'0 0.0
2018-Jun-16 22:29N 39°52' W 075°13'0 0.2
2018-Jun-16 21:59N 39°52' W 075°13'0 0.0
2018-Jun-16 17:38N 39°52' W 075°13'0 0.0
2018-Jun-16 17:29N 39°52' W 075°13'0 0.5
2018-Jun-16 16:58N 39°52' W 075°13'0 0.6
2018-Jun-16 16:30N 39°52' W 075°13'0 0.2
2018-Jun-16 16:00N 39°52' W 075°13'0 0.1
2018-Jun-16 15:30N 39°52' W 075°13'0 0.0
2018-Jun-16 15:00N 39°52' W 075°13'0 0.0
2018-Jun-16 14:30N 39°52' W 075°13'0 0.0
2018-Jun-16 14:00N 39°52' W 075°13'0 0.0
2018-Jun-16 13:30N 39°52' W 075°13'0 0.0
2018-Jun-16 13:00N 39°52' W 075°13'0 0.0
2018-Jun-16 12:30N 39°52' W 075°13'0 0.0
2018-Jun-16 11:59N 39°52' W 075°13'0 0.0
2018-Jun-16 11:29N 39°52' W 075°13'0 0.0
2018-Jun-16 10:59N 39°52' W 075°13'0 0.1
2018-Jun-16 10:29N 39°52' W 075°13'0 0.0
2018-Jun-16 09:59N 39°52' W 075°13'0 0.0
2018-Jun-16 09:29N 39°52' W 075°13'0 0.1
2018-Jun-16 08:59N 39°52' W 075°13'0 0.1
2018-Jun-16 08:29N 39°52' W 075°13'0 0.0
2018-Jun-16 07:59N 39°52' W 075°13'0 0.0
2018-Jun-16 07:29N 39°52' W 075°13'0 0.0
2018-Jun-16 06:59N 39°52' W 075°13'0 0.0
2018-Jun-16 06:29N 39°52' W 075°13'0 0.0
2018-Jun-16 05:59N 39°52' W 075°13'0 0.0
2018-Jun-16 05:29N 39°52' W 075°13'0 0.0
2018-Jun-16 04:59N 39°52' W 075°13'0 0.0
2018-Jun-16 04:29N 39°52' W 075°13'0 0.0
2018-Jun-16 03:59N 39°52' W 075°13'0 0.1
2018-Jun-16 03:29N 39°52' W 075°13'0 0.1
2018-Jun-16 02:59N 39°52' W 075°13'0 0.1
2018-Jun-16 02:29N 39°52' W 075°13'0 0.1
2018-Jun-16 01:59N 39°52' W 075°13'0 0.0
2018-Jun-16 01:29N 39°52' W 075°13'0 0.0
2018-Jun-16 00:59N 39°52' W 075°13'0 0.0
2018-Jun-16 00:29N 39°52' W 075°13'0 0.0
2018-Jun-15 23:59N 39°52' W 075°13'0 0.0
2018-Jun-15 23:29N 39°52' W 075°13'0 0.0
2018-Jun-15 22:59N 39°52' W 075°13'0 0.0
2018-Jun-15 22:29N 39°52' W 075°13'0 0.0
2018-Jun-15 21:59N 39°52' W 075°13'0 0.0
2018-Jun-15 21:29N 39°52' W 075°13'0 0.0
2018-Jun-15 20:59N 39°52' W 075°13'0 0.1
2018-Jun-15 20:29N 39°52' W 075°13'0 0.1
2018-Jun-15 19:50N 39°52' W 075°13'0 0.1
2018-Jun-15 19:29N 39°52' W 075°13'0 0.0
2018-Jun-15 18:59N 39°52' W 075°13'0 0.0
2018-Jun-15 18:29N 39°52' W 075°13'0 0.0
2018-Jun-15 17:59N 39°52' W 075°13'0 0.0
2018-Jun-15 17:29N 39°52' W 075°13'0 0.1
2018-Jun-15 16:59N 39°52' W 075°13'0 0.0
2018-Jun-15 16:29N 39°52' W 075°13'0 0.0
2018-Jun-15 15:58N 39°52' W 075°13'0 0.0
2018-Jun-15 15:28N 39°52' W 075°13'0 0.1
2018-Jun-15 14:58N 39°52' W 075°13'0 0.0
2018-Jun-15 14:29N 39°52' W 075°13'0 0.0
2018-Jun-15 13:58N 39°52' W 075°13'0 0.0
2018-Jun-15 13:28N 39°52' W 075°13'0 0.0
2018-Jun-15 12:58N 39°52' W 075°13'0 0.0
2018-Jun-15 12:28N 39°52' W 075°13'0 0.0
2018-Jun-15 11:58N 39°52' W 075°13'0 0.0
2018-Jun-15 11:28N 39°52' W 075°13'0 0.0
2018-Jun-15 10:58N 39°52' W 075°13'0 0.0
2018-Jun-15 10:28N 39°52' W 075°13'0 0.0
2018-Jun-15 09:58N 39°52' W 075°13'0 0.0
2018-Jun-15 09:28N 39°52' W 075°13'0 0.0
2018-Jun-15 08:58N 39°52' W 075°13'0 0.1
2018-Jun-15 08:28N 39°52' W 075°13'0 0.1
2018-Jun-15 07:58N 39°52' W 075°13'0 0.1
2018-Jun-15 07:28N 39°52' W 075°13'0 0.0
2018-Jun-15 06:58N 39°52' W 075°13'0 0.0
2018-Jun-15 06:25N 39°52' W 075°13'0 0.0
2018-Jun-15 05:58N 39°52' W 075°13'0 0.0
2018-Jun-15 05:28N 39°52' W 075°13'0 0.0
2018-Jun-15 04:58N 39°52' W 075°13'0 0.0
2018-Jun-15 04:28N 39°52' W 075°13'0 0.0
2018-Jun-15 03:58N 39°52' W 075°13'0 0.0
2018-Jun-15 03:28N 39°52' W 075°13'0 0.0
2018-Jun-15 02:58N 39°52' W 075°13'0 0.0
2018-Jun-15 02:28N 39°52' W 075°13'0 0.0
2018-Jun-15 01:58N 39°52' W 075°13'0 0.2
2018-Jun-15 01:28N 39°52' W 075°13'0 0.0
2018-Jun-15 00:58N 39°52' W 075°13'0 0.0
2018-Jun-15 00:28N 39°52' W 075°13'0 0.0
2018-Jun-14 23:58N 39°52' W 075°13'0 0.1
2018-Jun-14 23:28N 39°52' W 075°13'0 0.1
2018-Jun-14 22:58N 39°52' W 075°13'0 0.0
2018-Jun-14 22:28N 39°52' W 075°13'0 0.0
2018-Jun-14 21:58N 39°52' W 075°13'0 0.1
2018-Jun-14 21:28N 39°52' W 075°13'0 0.1
2018-Jun-14 20:58N 39°52' W 075°13'0 0.1
2018-Jun-14 20:28N 39°52' W 075°13'0 0.0
2018-Jun-14 19:58N 39°52' W 075°13'0 0.0
2018-Jun-14 19:28N 39°52' W 075°13'0 0.0
2018-Jun-14 18:55N 39°52' W 075°13'0 0.0
2018-Jun-14 18:28N 39°52' W 075°13'0 0.0
2018-Jun-14 17:58N 39°52' W 075°13'0 0.0
2018-Jun-14 17:28N 39°52' W 075°13'0 0.0
2018-Jun-14 16:58N 39°52' W 075°13'0 0.0
2018-Jun-14 16:28N 39°52' W 075°13'0 0.1
2018-Jun-14 15:58N 39°52' W 075°13'0 0.3
2018-Jun-14 15:28N 39°52' W 075°13'0 0.0
2018-Jun-14 14:58N 39°52' W 075°13'0 0.0
2018-Jun-14 14:28N 39°52' W 075°13'0 0.0
2018-Jun-14 13:58N 39°52' W 075°13'0 0.0
2018-Jun-14 13:28N 39°52' W 075°13'0 0.0
2018-Jun-14 12:58N 39°52' W 075°13'0 0.0
2018-Jun-14 12:28N 39°52' W 075°13'0 0.0
2018-Jun-14 11:58N 39°52' W 075°13'0 0.0
2018-Jun-14 11:28N 39°52' W 075°13'0 0.0
2018-Jun-14 10:58N 39°52' W 075°13'0 0.0
2018-Jun-14 10:28N 39°52' W 075°13'0 0.0
2018-Jun-14 10:01N 39°52' W 075°13'0 0.0
2018-Jun-14 09:28N 39°52' W 075°13'0 0.0
2018-Jun-14 08:58N 39°52' W 075°13'0 0.0
2018-Jun-14 08:31N 39°52' W 075°13'0 0.0
2018-Jun-14 08:00N 39°52' W 075°13'0 0.0
2018-Jun-14 07:30N 39°52' W 075°13'0 0.1
2018-Jun-14 07:00N 39°52' W 075°13'0 0.2
2018-Jun-14 06:30N 39°52' W 075°13'0 0.0
2018-Jun-14 06:00N 39°52' W 075°13'0 0.0
2018-Jun-14 05:30N 39°52' W 075°13'0 0.0
2018-Jun-14 05:00N 39°52' W 075°13'0 0.0
2018-Jun-14 04:30N 39°52' W 075°13'0 0.0
2018-Jun-14 04:00N 39°52' W 075°13'0 0.0
2018-Jun-14 03:30N 39°52' W 075°13'0 0.0
2018-Jun-14 03:00N 39°52' W 075°13'0 0.0
2018-Jun-14 02:30N 39°52' W 075°13'0 0.0
2018-Jun-14 02:00N 39°52' W 075°13'0 0.0
2018-Jun-14 01:30N 39°52' W 075°13'0 0.1
2018-Jun-14 01:00N 39°52' W 075°13'0 0.1
2018-Jun-14 00:30N 39°52' W 075°13'0 0.0
2018-Jun-14 00:00N 39°52' W 075°13'0 0.0
2018-Jun-13 23:30N 39°52' W 075°13'0 0.1
2018-Jun-13 23:00N 39°52' W 075°13'0 0.0
2018-Jun-13 22:30N 39°52' W 075°13'0 0.0
2018-Jun-13 22:00N 39°52' W 075°13'0 0.0
2018-Jun-13 21:30N 39°52' W 075°13'0 0.0
2018-Jun-13 21:00N 39°52' W 075°13'0 0.0
2018-Jun-13 20:30N 39°52' W 075°13'0 0.0
2018-Jun-13 20:00N 39°52' W 075°13'0 0.1
2018-Jun-13 19:30N 39°52' W 075°13'0 0.0
2018-Jun-13 19:00N 39°52' W 075°13'0 0.1
2018-Jun-13 18:30N 39°52' W 075°13'0 0.0
2018-Jun-13 18:00N 39°52' W 075°13'0 0.0
2018-Jun-13 17:30N 39°52' W 075°13'0 0.0
2018-Jun-13 17:00N 39°52' W 075°13'0 0.0
2018-Jun-13 16:30N 39°52' W 075°13'0 0.0
2018-Jun-13 16:00N 39°52' W 075°13'0 0.0
2018-Jun-13 15:27N 39°52' W 075°13'0 0.0
2018-Jun-13 15:00N 39°52' W 075°13'1 1.6
2018-Jun-13 14:30N 39°53' W 075°12'1 1.5
2018-Jun-13 13:59N 39°52' W 075°13'0 0.0
2018-Jun-13 13:29N 39°52' W 075°13'0 0.2
2018-Jun-13 12:59N 39°52' W 075°13'0 0.0
2018-Jun-13 12:29N 39°52' W 075°13'0 0.0
2018-Jun-13 11:59N 39°52' W 075°13'0 0.0
2018-Jun-13 11:29N 39°52' W 075°13'0 0.0
2018-Jun-13 10:59N 39°52' W 075°13'0 0.0
2018-Jun-13 10:29N 39°52' W 075°13'0 0.0
2018-Jun-13 09:59N 39°52' W 075°13'0 0.0
2018-Jun-13 09:29N 39°52' W 075°13'0 0.0
2018-Jun-13 08:59N 39°52' W 075°13'  
Track history (hours):
 
Tides and Currents Weather Stations Pressure Air Temp Water Temp Dewpoint Dewpoint Depression Visibility Wind Speed Wind Dir Waves Ship Positions

Morton S Bouchard Jr

Owner: BOUCHARD TRANSPORTATION CO INC, MELVILLE, NY. More information available from US FCC via Universal Licensing System and Coast Guard Vessel Documentation Center.

Last reported at 2018-Jun-23 08:42 UTC. Time now 2018-Jun-23 09:51 UTC.
Position N 39°01' W 075°09'.

Length 33 m; draft 5 m.

Type: Towing. MMSI: 367006550.

Date/timePositionNaut miles runAvg speedWind from/ knotsBaromVisibWave heightAir tempDewpointWater temp
2018-Jun-23 08:42N 39°01' W 075°09'0 1.0
2018-Jun-23 08:29N 39°01' W 075°09'3 6.3
2018-Jun-23 07:57N 39°04' W 075°11'3 6.5
2018-Jun-23 07:30N 39°07' W 075°13'3 6.6
2018-Jun-23 07:00N 39°10' W 075°15'4 7.4
2018-Jun-23 06:30N 39°13' W 075°18'4 8.4
2018-Jun-23 06:00N 39°16' W 075°21'5 9.3
2018-Jun-23 05:30N 39°20' W 075°25'5 9.7
2018-Jun-23 05:00N 39°23' W 075°29'5 9.8
2018-Jun-23 04:30N 39°27' W 075°33'5 9.4
2018-Jun-23 04:00N 39°32' W 075°33'4 7.8
2018-Jun-23 03:30N 39°35' W 075°35'0 0.3
2018-Jun-23 02:58N 39°35' W 075°36'0 0.0
2018-Jun-23 02:28N 39°35' W 075°36'0 0.0
2018-Jun-23 01:55N 39°35' W 075°36'0 0.0
2018-Jun-23 01:28N 39°35' W 075°36'0 0.0
2018-Jun-23 00:58N 39°35' W 075°36'0 0.0
2018-Jun-23 00:28N 39°35' W 075°36'0 0.0
2018-Jun-22 23:58N 39°35' W 075°36'0 0.0
2018-Jun-22 23:28N 39°35' W 075°36'0 0.0
2018-Jun-22 22:58N 39°35' W 075°36'0 0.0
2018-Jun-22 22:28N 39°35' W 075°36'0 0.0
2018-Jun-22 21:58N 39°35' W 075°36'0 0.0
2018-Jun-22 21:28N 39°35' W 075°36'0 0.0
2018-Jun-22 20:58N 39°35' W 075°36'0 0.0
2018-Jun-22 20:28N 39°35' W 075°36'0 0.0
2018-Jun-22 19:58N 39°35' W 075°36'0 0.0
2018-Jun-22 19:28N 39°35' W 075°36'0 0.0
2018-Jun-22 18:58N 39°35' W 075°36'0 0.0
2018-Jun-22 18:28N 39°35' W 075°36'0 0.0
2018-Jun-22 17:58N 39°35' W 075°36'0 0.0
2018-Jun-22 17:28N 39°35' W 075°36'0 0.0
2018-Jun-22 16:58N 39°35' W 075°36'0 0.0
2018-Jun-22 16:28N 39°35' W 075°36'0 0.0
2018-Jun-22 15:58N 39°35' W 075°36'0 0.0
2018-Jun-22 15:28N 39°35' W 075°36'0 0.0
2018-Jun-22 15:00N 39°35' W 075°36'0 0.0
2018-Jun-22 14:30N 39°35' W 075°36'0 0.0
2018-Jun-22 14:00N 39°35' W 075°36'0 0.0
2018-Jun-22 13:30N 39°35' W 075°36'0 0.0
2018-Jun-22 13:00N 39°35' W 075°36'0 0.0
2018-Jun-22 12:30N 39°35' W 075°36'1 2.1
2018-Jun-22 12:00N 39°35' W 075°34'1 2.8
2018-Jun-22 11:30N 39°34' W 075°33'4 7.8
2018-Jun-22 11:01N 39°37' W 075°35'4 8.3
2018-Jun-22 10:30N 39°41' W 075°31'2 3.4
2018-Jun-22 09:58N 39°42' W 075°30'0 0.0
2018-Jun-22 09:28N 39°42' W 075°30'0 0.0
2018-Jun-22 08:58N 39°42' W 075°30'0 0.1
2018-Jun-22 08:28N 39°42' W 075°30'0 0.2
2018-Jun-22 07:55N 39°42' W 075°31'0 0.1
2018-Jun-22 07:28N 39°42' W 075°31'0 0.0
2018-Jun-22 06:58N 39°42' W 075°31'0 0.0
2018-Jun-22 06:25N 39°42' W 075°31'0 0.0
2018-Jun-22 05:58N 39°42' W 075°31'0 0.0
2018-Jun-22 05:28N 39°42' W 075°31'0 0.0
2018-Jun-22 04:58N 39°42' W 075°31'0 0.0
2018-Jun-22 04:28N 39°42' W 075°31'0 0.0
2018-Jun-22 03:58N 39°42' W 075°31'0 0.0
2018-Jun-22 03:28N 39°42' W 075°31'0 0.1
2018-Jun-22 02:58N 39°42' W 075°31'0 0.1
2018-Jun-22 02:28N 39°42' W 075°31'0 0.2
2018-Jun-22 01:55N 39°42' W 075°30'0 0.1
2018-Jun-22 01:28N 39°42' W 075°30'0 0.0
2018-Jun-22 00:58N 39°42' W 075°30'0 0.0
2018-Jun-22 00:28N 39°42' W 075°30'0 0.0
2018-Jun-22 00:00N 39°42' W 075°30'0 0.0
2018-Jun-21 23:28N 39°42' W 075°30'0 0.0
2018-Jun-21 23:01N 39°42' W 075°30'0 0.0
2018-Jun-21 22:31N 39°42' W 075°30'0 0.0
2018-Jun-21 22:00N 39°42' W 075°30'0 0.0
2018-Jun-21 21:30N 39°42' W 075°30'0 0.0
2018-Jun-21 21:00N 39°42' W 075°30'0 0.0
2018-Jun-21 20:30N 39°42' W 075°30'0 0.1
2018-Jun-21 20:00N 39°42' W 075°30'0 0.2
2018-Jun-21 19:30N 39°42' W 075°31'0 0.1
2018-Jun-21 19:00N 39°42' W 075°31'0 0.6
2018-Jun-21 18:30N 39°43' W 075°31'1 2.1
2018-Jun-21 17:58N 39°43' W 075°32'0 0.0
2018-Jun-21 17:28N 39°43' W 075°32'0 0.0
2018-Jun-21 16:58N 39°43' W 075°32'0 0.0
2018-Jun-21 16:26N 39°43' W 075°32'1 2.8
2018-Jun-21 15:58N 39°42' W 075°30'4 7.9
2018-Jun-21 15:30N 39°46' W 075°29'611.1
2018-Jun-21 15:00N 39°49' W 075°23'510.7
2018-Jun-21 14:30N 39°51' W 075°17'3 5.8
2018-Jun-21 13:58N 39°52' W 075°13'0 0.0
2018-Jun-21 13:28N 39°52' W 075°13'0 0.1
2018-Jun-21 12:58N 39°52' W 075°13'0 0.0
2018-Jun-21 12:28N 39°52' W 075°13'0 0.0
2018-Jun-21 11:58N 39°52' W 075°13'0 0.0
2018-Jun-21 11:28N 39°52' W 075°13'0 0.0
2018-Jun-21 10:58N 39°52' W 075°13'0 0.0
2018-Jun-21 10:28N 39°52' W 075°13'0 0.0
2018-Jun-21 09:58N 39°52' W 075°13'0 0.0
2018-Jun-21 09:28N 39°52' W 075°13'0 0.0
2018-Jun-21 08:58N 39°52' W 075°13'0 0.1
2018-Jun-21 08:28N 39°52' W 075°13'0 0.0
2018-Jun-21 07:58N 39°52' W 075°13'0 0.1
2018-Jun-21 07:28N 39°52' W 075°13'0 0.0
2018-Jun-21 06:58N 39°52' W 075°13'0 0.0
2018-Jun-21 06:28N 39°52' W 075°13'0 0.0
2018-Jun-21 05:58N 39°52' W 075°13'0 0.0
2018-Jun-21 05:28N 39°52' W 075°13'0 0.0
2018-Jun-21 04:58N 39°52' W 075°13'0 0.0
2018-Jun-21 04:28N 39°52' W 075°13'0 0.0
2018-Jun-21 03:58N 39°52' W 075°13'0 0.0
2018-Jun-21 03:28N 39°52' W 075°13'0 0.0
2018-Jun-21 02:58N 39°52' W 075°13'0 0.1
2018-Jun-21 02:28N 39°52' W 075°13'0 0.1
2018-Jun-21 01:58N 39°52' W 075°13'0 0.0
2018-Jun-21 01:28N 39°52' W 075°13'0 0.0
2018-Jun-21 00:58N 39°52' W 075°13'0 0.0
2018-Jun-21 00:28N 39°52' W 075°13'0 0.0
2018-Jun-20 23:58N 39°52' W 075°13'0 0.0
2018-Jun-20 23:28N 39°52' W 075°13'0 0.0
2018-Jun-20 22:58N 39°52' W 075°13'0 0.0
2018-Jun-20 22:28N 39°52' W 075°13'0 0.0
2018-Jun-20 21:58N 39°52' W 075°13'0 0.0
2018-Jun-20 21:28N 39°52' W 075°13'0 0.0
2018-Jun-20 20:58N 39°52' W 075°13'0 0.0
2018-Jun-20 20:28N 39°52' W 075°13'0 0.0
2018-Jun-20 19:58N 39°52' W 075°13'0 0.0
2018-Jun-20 19:28N 39°52' W 075°13'0 0.1
2018-Jun-20 18:58N 39°52' W 075°13'0 0.0
2018-Jun-20 18:28N 39°52' W 075°13'0 0.0
2018-Jun-20 17:58N 39°52' W 075°13'0 0.0
2018-Jun-20 17:28N 39°52' W 075°13'0 0.0
2018-Jun-20 16:58N 39°52' W 075°13'0 0.0
2018-Jun-20 16:28N 39°52' W 075°13'2 4.0
2018-Jun-20 16:00N 39°54' W 075°12'0 0.1
2018-Jun-20 15:29N 39°54' W 075°12'0 0.0
2018-Jun-20 14:59N 39°54' W 075°12'0 0.0
2018-Jun-20 14:29N 39°54' W 075°12'2 3.6
2018-Jun-20 13:59N 39°52' W 075°13'0 0.0
2018-Jun-20 13:29N 39°52' W 075°13'0 0.0
2018-Jun-20 12:59N 39°52' W 075°13'0 0.1
2018-Jun-20 12:26N 39°52' W 075°13'0 0.1
2018-Jun-20 11:59N 39°52' W 075°13'0 0.0
2018-Jun-20 11:29N 39°52' W 075°13'0 0.0
2018-Jun-20 10:59N 39°52' W 075°13'0 0.0
2018-Jun-20 10:29N 39°52' W 075°13'0 0.0
2018-Jun-20 09:59N 39°52' W 075°13'0 0.0
2018-Jun-20 09:29N 39°52' W 075°13'0 0.0
2018-Jun-20 08:56N 39°52' W 075°13'0 0.0
2018-Jun-20 08:28N 39°52' W 075°13'0 0.0
2018-Jun-20 07:58N 39°52' W 075°13'0 0.1
2018-Jun-20 07:28N 39°52' W 075°13'0 0.1
2018-Jun-20 06:59N 39°52' W 075°13'0 0.1
2018-Jun-20 06:28N 39°52' W 075°13'0 0.0
2018-Jun-20 05:58N 39°52' W 075°13'0 0.0
2018-Jun-20 05:28N 39°52' W 075°13'0 0.0
2018-Jun-20 04:58N 39°52' W 075°13'0 0.0
2018-Jun-20 04:28N 39°52' W 075°13'0 0.0
2018-Jun-20 03:58N 39°52' W 075°13'0 0.0
2018-Jun-20 03:28N 39°52' W 075°13'0 0.0
2018-Jun-20 02:58N 39°52' W 075°13'0 0.0
2018-Jun-20 02:28N 39°52' W 075°13'0 0.0
2018-Jun-20 01:58N 39°52' W 075°13'0 0.1
2018-Jun-20 01:28N 39°52' W 075°13'0 0.0
2018-Jun-20 00:58N 39°52' W 075°13'0 0.1
2018-Jun-20 00:28N 39°52' W 075°13'0 0.1
2018-Jun-19 23:58N 39°52' W 075°13'0 0.1
2018-Jun-19 23:28N 39°52' W 075°13'0 0.0
2018-Jun-19 22:58N 39°52' W 075°13'0 0.0
2018-Jun-19 22:28N 39°52' W 075°13'0 0.0
2018-Jun-19 21:58N 39°52' W 075°13'0 0.0
2018-Jun-19 21:28N 39°52' W 075°13'0 0.0
2018-Jun-19 20:58N 39°52' W 075°13'0 0.0
2018-Jun-19 20:28N 39°52' W 075°13'0 0.1
2018-Jun-19 19:58N 39°52' W 075°13'0 0.1
2018-Jun-19 19:28N 39°52' W 075°13'0 0.1
2018-Jun-19 18:58N 39°52' W 075°13'0 0.1
2018-Jun-19 18:28N 39°52' W 075°13'0 0.0
2018-Jun-19 17:58N 39°52' W 075°13'0 0.0
2018-Jun-19 17:28N 39°52' W 075°13'0 0.0
2018-Jun-19 16:58N 39°52' W 075°13'0 0.0
2018-Jun-19 16:28N 39°52' W 075°13'0 0.0
2018-Jun-19 15:58N 39°52' W 075°13'0 0.0
2018-Jun-19 15:28N 39°52' W 075°13'0 0.0
2018-Jun-19 14:58N 39°52' W 075°13'1 3.1
2018-Jun-19 14:30N 39°51' W 075°14'1 2.7
2018-Jun-19 13:58N 39°52' W 075°13'0 0.1
2018-Jun-19 13:28N 39°52' W 075°13'0 0.1
2018-Jun-19 12:59N 39°52' W 075°13'0 0.1
2018-Jun-19 12:29N 39°52' W 075°13'0 0.0
2018-Jun-19 11:59N 39°52' W 075°13'0 0.2
2018-Jun-19 11:29N 39°52' W 075°13'0 0.0
2018-Jun-19 10:59N 39°52' W 075°13'0 0.0
2018-Jun-19 10:29N 39°52' W 075°13'0 0.0
2018-Jun-19 09:59N 39°52' W 075°13'0 0.0
2018-Jun-19 09:29N 39°52' W 075°13'0 0.0
2018-Jun-19 08:59N 39°52' W 075°13'0 0.0
2018-Jun-19 08:29N 39°52' W 075°13'0 0.0
2018-Jun-19 07:59N 39°52' W 075°13'0 0.0
2018-Jun-19 07:29N 39°52' W 075°13'0 0.0
2018-Jun-19 06:59N 39°52' W 075°13'0 0.0
2018-Jun-19 06:26N 39°52' W 075°13'0 0.0
2018-Jun-19 05:59N 39°52' W 075°13'0 0.2
2018-Jun-19 05:29N 39°52' W 075°13'0 0.2
2018-Jun-19 04:59N 39°52' W 075°13'0 0.1
2018-Jun-19 04:29N 39°52' W 075°13'0 0.0
2018-Jun-19 03:59N 39°52' W 075°13'0 0.0
2018-Jun-19 03:26N 39°52' W 075°13'0 0.0
2018-Jun-19 02:59N 39°52' W 075°13'0 0.0
2018-Jun-19 02:26N 39°52' W 075°13'0 0.0
2018-Jun-19 01:59N 39°52' W 075°13'0 0.0
2018-Jun-19 01:29N 39°52' W 075°13'0 0.1
2018-Jun-19 00:59N 39°52' W 075°13'0 0.1
2018-Jun-19 00:29N 39°52' W 075°13'0 0.1
2018-Jun-18 23:59N 39°52' W 075°13'0 0.0
2018-Jun-18 23:29N 39°52' W 075°13'0 0.0
2018-Jun-18 22:59N 39°52' W 075°13'0 0.0
2018-Jun-18 22:29N 39°52' W 075°13'0 0.0
2018-Jun-18 21:59N 39°52' W 075°13'0 0.0
2018-Jun-18 21:29N 39°52' W 075°13'0 0.0
2018-Jun-18 20:59N 39°52' W 075°13'0 0.0
2018-Jun-18 20:29N 39°52' W 075°13'0 0.0
2018-Jun-18 19:59N 39°52' W 075°13'0 0.1
2018-Jun-18 19:29N 39°52' W 075°13'0 0.0
2018-Jun-18 18:59N 39°52' W 075°13'0 0.0
2018-Jun-18 18:29N 39°52' W 075°13'0 0.0
2018-Jun-18 17:58N 39°52' W 075°13'0 0.1
2018-Jun-18 17:28N 39°52' W 075°13'0 0.2
2018-Jun-18 16:58N 39°52' W 075°13'1 1.9
2018-Jun-18 16:30N 39°53' W 075°12'0 0.3
2018-Jun-18 16:00N 39°53' W 075°12'1 1.6
2018-Jun-18 15:28N 39°52' W 075°13'0 0.0
2018-Jun-18 14:58N 39°52' W 075°13'0 0.0
2018-Jun-18 14:28N 39°52' W 075°13'0 0.0
2018-Jun-18 13:58N 39°52' W 075°13'0 0.0
2018-Jun-18 13:28N 39°52' W 075°13'0 0.0
2018-Jun-18 12:58N 39°52' W 075°13'0 0.0
2018-Jun-18 12:28N 39°52' W 075°13'0 0.1
2018-Jun-18 11:58N 39°52' W 075°13'0 0.1
2018-Jun-18 11:25N 39°52' W 075°13'0 0.2
2018-Jun-18 10:58N 39°52' W 075°13'0 0.1
2018-Jun-18 10:28N 39°52' W 075°13'0 0.0
2018-Jun-18 09:58N 39°52' W 075°13'0 0.0
2018-Jun-18 09:25N 39°52' W 075°13'0 0.0
2018-Jun-18 08:58N 39°52' W 075°13'0 0.0
2018-Jun-18 08:28N 39°52' W 075°13'0 0.0
2018-Jun-18 07:58N 39°52' W 075°13'0 0.0
2018-Jun-18 07:28N 39°52' W 075°13'0 0.0
2018-Jun-18 06:58N 39°52' W 075°13'0 0.0
2018-Jun-18 06:28N 39°52' W 075°13'0 0.0
2018-Jun-18 05:58N 39°52' W 075°13'0 0.0
2018-Jun-18 05:28N 39°52' W 075°13'0 0.3
2018-Jun-18 04:58N 39°52' W 075°13'0 0.1
2018-Jun-18 04:28N 39°52' W 075°13'0 0.0
2018-Jun-18 04:00N 39°52' W 075°13'0 0.0
2018-Jun-18 03:29N 39°52' W 075°13'0 0.0
2018-Jun-18 02:59N 39°52' W 075°13'0 0.0
2018-Jun-18 02:29N 39°52' W 075°13'0 0.0
2018-Jun-18 01:59N 39°52' W 075°13'0 0.0
2018-Jun-18 01:30N 39°52' W 075°13'0 0.0
2018-Jun-18 01:00N 39°52' W 075°13'0 0.0
2018-Jun-18 00:30N 39°52' W 075°13'0 0.1
2018-Jun-17 23:59N 39°52' W 075°13'0 0.2
2018-Jun-17 23:30N 39°52' W 075°13'0 0.2
2018-Jun-17 22:59N 39°52' W 075°13'0 0.1
2018-Jun-17 22:29N 39°52' W 075°13'0 0.0
2018-Jun-17 21:59N 39°52' W 075°13'0 0.0
2018-Jun-17 21:29N 39°52' W 075°13'0 0.0
2018-Jun-17 20:59N 39°52' W 075°13'0 0.0
2018-Jun-17 20:29N 39°52' W 075°13'0 0.0
2018-Jun-17 19:59N 39°52' W 075°13'0 0.0
2018-Jun-17 19:29N 39°52' W 075°13'0 0.0
2018-Jun-17 18:59N 39°52' W 075°13'0 0.0
2018-Jun-17 18:29N 39°52' W 075°13'0 0.0
2018-Jun-17 17:59N 39°52' W 075°13'0 0.0
2018-Jun-17 17:29N 39°52' W 075°13'0 0.1
2018-Jun-17 16:59N 39°52' W 075°13'0 0.2
2018-Jun-17 16:29N 39°52' W 075°13'0 0.0
2018-Jun-17 15:59N 39°52' W 075°13'0 0.0
2018-Jun-17 15:29N 39°52' W 075°13'0 0.0
2018-Jun-17 14:59N 39°52' W 075°13'0 0.0
2018-Jun-17 14:29N 39°52' W 075°13'0 0.0
2018-Jun-17 13:59N 39°52' W 075°13'0 0.0
2018-Jun-17 13:29N 39°52' W 075°13'0 0.0
2018-Jun-17 12:59N 39°52' W 075°13'0 0.0
2018-Jun-17 12:29N 39°52' W 075°13'0 0.0
2018-Jun-17 11:59N 39°52' W 075°13'0 0.0
2018-Jun-17 11:29N 39°52' W 075°13'0 0.0
2018-Jun-17 10:59N 39°52' W 075°13'0 0.0
2018-Jun-17 10:29N 39°52' W 075°13'0 0.2
2018-Jun-17 09:59N 39°52' W 075°13'0 0.2
2018-Jun-17 09:29N 39°52' W 075°13'0 0.0
2018-Jun-17 08:59N 39°52' W 075°13'0 0.0
2018-Jun-17 08:29N 39°52' W 075°13'0 0.0
2018-Jun-17 07:59N 39°52' W 075°13'0 0.0
2018-Jun-17 07:29N 39°52' W 075°13'0 0.0
2018-Jun-17 06:56N 39°52' W 075°13'0 0.0
2018-Jun-17 06:29N 39°52' W 075°13'0 0.0
2018-Jun-17 05:59N 39°52' W 075°13'0 0.0
2018-Jun-17 05:29N 39°52' W 075°13'0 0.0
2018-Jun-17 04:59N 39°52' W 075°13'0 0.0
2018-Jun-17 04:29N 39°52' W 075°13'0 0.2
2018-Jun-17 03:59N 39°52' W 075°13'0 0.1
2018-Jun-17 03:29N 39°52' W 075°13'0 0.0
2018-Jun-17 02:59N 39°52' W 075°13'0 0.0
2018-Jun-17 02:29N 39°52' W 075°13'0 0.1
2018-Jun-17 01:59N 39°52' W 075°13'0 0.0
2018-Jun-17 01:29N 39°52' W 075°13'0 0.0
2018-Jun-17 00:59N 39°52' W 075°13'0 0.0
2018-Jun-17 00:29N 39°52' W 075°13'0 0.0
2018-Jun-16 23:59N 39°52' W 075°13'0 0.0
2018-Jun-16 23:29N 39°52' W 075°13'0 0.0
2018-Jun-16 22:59N 39°52' W 075°13'0 0.0
2018-Jun-16 22:29N 39°52' W 075°13'0 0.2
2018-Jun-16 21:59N 39°52' W 075°13'0 0.0
2018-Jun-16 17:38N 39°52' W 075°13'0 0.0
2018-Jun-16 17:29N 39°52' W 075°13'0 0.5
2018-Jun-16 16:58N 39°52' W 075°13'0 0.6
2018-Jun-16 16:30N 39°52' W 075°13'0 0.2
2018-Jun-16 16:00N 39°52' W 075°13'0 0.1
2018-Jun-16 15:30N 39°52' W 075°13'0 0.0
2018-Jun-16 15:00N 39°52' W 075°13'0 0.0
2018-Jun-16 14:30N 39°52' W 075°13'0 0.0
2018-Jun-16 14:00N 39°52' W 075°13'0 0.0
2018-Jun-16 13:30N 39°52' W 075°13'0 0.0
2018-Jun-16 13:00N 39°52' W 075°13'0 0.0
2018-Jun-16 12:30N 39°52' W 075°13'0 0.0
2018-Jun-16 11:59N 39°52' W 075°13'0 0.0
2018-Jun-16 11:29N 39°52' W 075°13'0 0.0
2018-Jun-16 10:59N 39°52' W 075°13'0 0.1
2018-Jun-16 10:29N 39°52' W 075°13'0 0.0
2018-Jun-16 09:59N 39°52' W 075°13'0 0.0
2018-Jun-16 09:29N 39°52' W 075°13'0 0.1
2018-Jun-16 08:59N 39°52' W 075°13'0 0.1
2018-Jun-16 08:29N 39°52' W 075°13'0 0.0
2018-Jun-16 07:59N 39°52' W 075°13'0 0.0
2018-Jun-16 07:29N 39°52' W 075°13'0 0.0
2018-Jun-16 06:59N 39°52' W 075°13'0 0.0
2018-Jun-16 06:29N 39°52' W 075°13'0 0.0
2018-Jun-16 05:59N 39°52' W 075°13'0 0.0
2018-Jun-16 05:29N 39°52' W 075°13'0 0.0
2018-Jun-16 04:59N 39°52' W 075°13'0 0.0
2018-Jun-16 04:29N 39°52' W 075°13'0 0.0
2018-Jun-16 03:59N 39°52' W 075°13'0 0.1
2018-Jun-16 03:29N 39°52' W 075°13'0 0.1
2018-Jun-16 02:59N 39°52' W 075°13'0 0.1
2018-Jun-16 02:29N 39°52' W 075°13'0 0.1
2018-Jun-16 01:59N 39°52' W 075°13'0 0.0
2018-Jun-16 01:29N 39°52' W 075°13'0 0.0
2018-Jun-16 00:59N 39°52' W 075°13'0 0.0
2018-Jun-16 00:29N 39°52' W 075°13'0 0.0
2018-Jun-15 23:59N 39°52' W 075°13'0 0.0
2018-Jun-15 23:29N 39°52' W 075°13'0 0.0
2018-Jun-15 22:59N 39°52' W 075°13'0 0.0
2018-Jun-15 22:29N 39°52' W 075°13'0 0.0
2018-Jun-15 21:59N 39°52' W 075°13'0 0.0
2018-Jun-15 21:29N 39°52' W 075°13'0 0.0
2018-Jun-15 20:59N 39°52' W 075°13'0 0.1
2018-Jun-15 20:29N 39°52' W 075°13'0 0.1
2018-Jun-15 19:50N 39°52' W 075°13'0 0.1
2018-Jun-15 19:29N 39°52' W 075°13'0 0.0
2018-Jun-15 18:59N 39°52' W 075°13'0 0.0
2018-Jun-15 18:29N 39°52' W 075°13'0 0.0
2018-Jun-15 17:59N 39°52' W 075°13'0 0.0
2018-Jun-15 17:29N 39°52' W 075°13'0 0.1
2018-Jun-15 16:59N 39°52' W 075°13'0 0.0
2018-Jun-15 16:29N 39°52' W 075°13'0 0.0
2018-Jun-15 15:58N 39°52' W 075°13'0 0.0
2018-Jun-15 15:28N 39°52' W 075°13'0 0.1
2018-Jun-15 14:58N 39°52' W 075°13'0 0.0
2018-Jun-15 14:29N 39°52' W 075°13'0 0.0
2018-Jun-15 13:58N 39°52' W 075°13'0 0.0
2018-Jun-15 13:28N 39°52' W 075°13'0 0.0
2018-Jun-15 12:58N 39°52' W 075°13'0 0.0
2018-Jun-15 12:28N 39°52' W 075°13'0 0.0
2018-Jun-15 11:58N 39°52' W 075°13'0 0.0
2018-Jun-15 11:28N 39°52' W 075°13'0 0.0
2018-Jun-15 10:58N 39°52' W 075°13'0 0.0
2018-Jun-15 10:28N 39°52' W 075°13'0 0.0
2018-Jun-15 09:58N 39°52' W 075°13'0 0.0
2018-Jun-15 09:28N 39°52' W 075°13'0 0.0
2018-Jun-15 08:58N 39°52' W 075°13'0 0.1
2018-Jun-15 08:28N 39°52' W 075°13'0 0.1
2018-Jun-15 07:58N 39°52' W 075°13'0 0.1
2018-Jun-15 07:28N 39°52' W 075°13'0 0.0
2018-Jun-15 06:58N 39°52' W 075°13'0 0.0
2018-Jun-15 06:25N 39°52' W 075°13'0 0.0
2018-Jun-15 05:58N 39°52' W 075°13'0 0.0
2018-Jun-15 05:28N 39°52' W 075°13'0 0.0
2018-Jun-15 04:58N 39°52' W 075°13'0 0.0
2018-Jun-15 04:28N 39°52' W 075°13'0 0.0
2018-Jun-15 03:58N 39°52' W 075°13'0 0.0
2018-Jun-15 03:28N 39°52' W 075°13'0 0.0
2018-Jun-15 02:58N 39°52' W 075°13'0 0.0
2018-Jun-15 02:28N 39°52' W 075°13'0 0.0
2018-Jun-15 01:58N 39°52' W 075°13'0 0.2
2018-Jun-15 01:28N 39°52' W 075°13'0 0.0
2018-Jun-15 00:58N 39°52' W 075°13'0 0.0
2018-Jun-15 00:28N 39°52' W 075°13'0 0.0
2018-Jun-14 23:58N 39°52' W 075°13'0 0.1
2018-Jun-14 23:28N 39°52' W 075°13'0 0.1
2018-Jun-14 22:58N 39°52' W 075°13'0 0.0
2018-Jun-14 22:28N 39°52' W 075°13'0 0.0
2018-Jun-14 21:58N 39°52' W 075°13'0 0.1
2018-Jun-14 21:28N 39°52' W 075°13'0 0.1
2018-Jun-14 20:58N 39°52' W 075°13'0 0.1
2018-Jun-14 20:28N 39°52' W 075°13'0 0.0
2018-Jun-14 19:58N 39°52' W 075°13'0 0.0
2018-Jun-14 19:28N 39°52' W 075°13'0 0.0
2018-Jun-14 18:55N 39°52' W 075°13'0 0.0
2018-Jun-14 18:28N 39°52' W 075°13'0 0.0
2018-Jun-14 17:58N 39°52' W 075°13'0 0.0
2018-Jun-14 17:28N 39°52' W 075°13'0 0.0
2018-Jun-14 16:58N 39°52' W 075°13'0 0.0
2018-Jun-14 16:28N 39°52' W 075°13'0 0.1
2018-Jun-14 15:58N 39°52' W 075°13'0 0.3
2018-Jun-14 15:28N 39°52' W 075°13'0 0.0
2018-Jun-14 14:58N 39°52' W 075°13'0 0.0
2018-Jun-14 14:28N 39°52' W 075°13'0 0.0
2018-Jun-14 13:58N 39°52' W 075°13'0 0.0
2018-Jun-14 13:28N 39°52' W 075°13'0 0.0
2018-Jun-14 12:58N 39°52' W 075°13'0 0.0
2018-Jun-14 12:28N 39°52' W 075°13'0 0.0
2018-Jun-14 11:58N 39°52' W 075°13'0 0.0
2018-Jun-14 11:28N 39°52' W 075°13'0 0.0
2018-Jun-14 10:58N 39°52' W 075°13'0 0.0
2018-Jun-14 10:28N 39°52' W 075°13'0 0.0
2018-Jun-14 10:01N 39°52' W 075°13'0 0.0
2018-Jun-14 09:28N 39°52' W 075°13'0 0.0
2018-Jun-14 08:58N 39°52' W 075°13'0 0.0
2018-Jun-14 08:31N 39°52' W 075°13'0 0.0
2018-Jun-14 08:00N 39°52' W 075°13'0 0.0
2018-Jun-14 07:30N 39°52' W 075°13'0 0.1
2018-Jun-14 07:00N 39°52' W 075°13'0 0.2
2018-Jun-14 06:30N 39°52' W 075°13'0 0.0
2018-Jun-14 06:00N 39°52' W 075°13'0 0.0
2018-Jun-14 05:30N 39°52' W 075°13'0 0.0
2018-Jun-14 05:00N 39°52' W 075°13'0 0.0
2018-Jun-14 04:30N 39°52' W 075°13'0 0.0
2018-Jun-14 04:00N 39°52' W 075°13'0 0.0
2018-Jun-14 03:30N 39°52' W 075°13'0 0.0
2018-Jun-14 03:00N 39°52' W 075°13'0 0.0
2018-Jun-14 02:30N 39°52' W 075°13'0 0.0
2018-Jun-14 02:00N 39°52' W 075°13'0 0.0
2018-Jun-14 01:30N 39°52' W 075°13'0 0.1
2018-Jun-14 01:00N 39°52' W 075°13'0 0.1
2018-Jun-14 00:30N 39°52' W 075°13'0 0.0
2018-Jun-14 00:00N 39°52' W 075°13'0 0.0
2018-Jun-13 23:30N 39°52' W 075°13'0 0.1
2018-Jun-13 23:00N 39°52' W 075°13'0 0.0
2018-Jun-13 22:30N 39°52' W 075°13'0 0.0
2018-Jun-13 22:00N 39°52' W 075°13'0 0.0
2018-Jun-13 21:30N 39°52' W 075°13'0 0.0
2018-Jun-13 21:00N 39°52' W 075°13'0 0.0
2018-Jun-13 20:30N 39°52' W 075°13'0 0.0
2018-Jun-13 20:00N 39°52' W 075°13'0 0.1
2018-Jun-13 19:30N 39°52' W 075°13'0 0.0
2018-Jun-13 19:00N 39°52' W 075°13'0 0.1
2018-Jun-13 18:30N 39°52' W 075°13'0 0.0
2018-Jun-13 18:00N 39°52' W 075°13'0 0.0
2018-Jun-13 17:30N 39°52' W 075°13'0 0.0
2018-Jun-13 17:00N 39°52' W 075°13'0 0.0
2018-Jun-13 16:30N 39°52' W 075°13'0 0.0
2018-Jun-13 16:00N 39°52' W 075°13'0 0.0
2018-Jun-13 15:27N 39°52' W 075°13'0 0.0
2018-Jun-13 15:00N 39°52' W 075°13'1 1.6
2018-Jun-13 14:30N 39°53' W 075°12'1 1.5
2018-Jun-13 13:59N 39°52' W 075°13'0 0.0
2018-Jun-13 13:29N 39°52' W 075°13'0 0.2
2018-Jun-13 12:59N 39°52' W 075°13'0 0.0
2018-Jun-13 12:29N 39°52' W 075°13'0 0.0
2018-Jun-13 11:59N 39°52' W 075°13'0 0.0
2018-Jun-13 11:29N 39°52' W 075°13'0 0.0
2018-Jun-13 10:59N 39°52' W 075°13'0 0.0
2018-Jun-13 10:29N 39°52' W 075°13'0 0.0
2018-Jun-13 09:59N 39°52' W 075°13'0 0.0
2018-Jun-13 09:29N 39°52' W 075°13'0 0.0
2018-Jun-13 08:59N 39°52' W 075°13'  

Dump ship's entire track history